Knob Lick, Kentucky
Current Conditions -  °F | °C
As of 2:00 PM on Sunday 23 Nov 2014 (Local Time) from KGLW Reporting Station
Overcast Overcast  
Wind Chill: 56°   Ceiling: 3600
Heat Index: 56°   Visibility: 10mi
Dew Point: 53°   Wind: 10mph
Humidity: 89%   Direction: 120°ESE
Pressure: 29.56"   Gusts: 17mph
Location:  37.08°N, 85.69°W
Report Text: KGLW 232000Z AUTO 12009G15KT 10SM OVC036 14/12 A2956 RMK AO2 T01350117
Loading
Personal Weather Stations






























Interactive Weather Map New forecast layout! Learn more

10-Day Weather Forecast

Advertisements
Track Severe Weather on mobile